Time;durP1;ratioP1;P1;durP2;ratioP2;P2;SDS_P1;SDS_P2;PMS_P1;PMS_P2;Temp;Humidity;BMP_temperature;BMP_pressure;BME280_temperature;BME280_humidity;BME280_pressure;Samples;Min_cycle;Max_cycle;Signal;HPM_P1;HPM_P2
2023/08/16 00:01:19;;;;;;;10.18;6.90;;;;;;;;;;5030122;28;20071;-60
2023/08/16 00:03:45;;;;;;;9.85;7.05;;;;;;;;;;5030285;28;20038;-60
2023/08/16 00:06:12;;;;;;;10.80;6.68;;;;;;;;;;5037856;28;20496;-60
2023/08/16 00:08:38;;;;;;;15.18;6.88;;;;;;;;;;5040010;28;20525;-59
2023/08/16 00:11:05;;;;;;;10.68;6.97;;;;;;;;;;5033691;28;20041;-60
2023/08/16 00:13:33;;;;;;;13.18;7.35;;;;;;;;;;5032043;28;20050;-60
2023/08/16 00:16:01;;;;;;;10.15;6.47;;;;;;;;;;5039278;28;20036;-60
2023/08/16 00:18:30;;;;;;;11.30;7.15;;;;;;;;;;5040612;28;20404;-60
2023/08/16 00:20:59;;;;;;;13.30;7.32;;;;;;;;;;5037446;28;20045;-60
2023/08/16 00:23:25;;;;;;;12.97;7.50;;;;;;;;;;5030677;28;20052;-60
2023/08/16 00:25:51;;;;;;;10.15;7.53;;;;;;;;;;5038648;28;20029;-60
2023/08/16 00:28:17;;;;;;;12.52;7.18;;;;;;;;;;5038014;28;20393;-60
2023/08/16 00:30:43;;;;;;;12.75;7.40;;;;;;;;;;5035022;28;20041;-60
2023/08/16 00:33:09;;;;;;;12.30;7.30;;;;;;;;;;5035546;28;20049;-60
2023/08/16 00:35:35;;;;;;;12.68;7.55;;;;;;;;;;5041147;28;20033;-60
2023/08/16 00:38:02;;;;;;;12.77;7.28;;;;;;;;;;5042898;28;20034;-60
2023/08/16 00:40:28;;;;;;;12.55;6.93;;;;;;;;;;5036737;28;20040;-60
2023/08/16 00:42:54;;;;;;;13.23;7.10;;;;;;;;;;5040969;28;20068;-60
2023/08/16 00:45:20;;;;;;;10.10;6.90;;;;;;;;;;5041407;28;20057;-60
2023/08/16 00:47:49;;;;;;;9.07;6.93;;;;;;;;;;5036481;28;20630;-60
2023/08/16 00:50:15;;;;;;;13.27;7.63;;;;;;;;;;5037153;28;20057;-60
2023/08/16 00:52:41;;;;;;;11.20;7.07;;;;;;;;;;5031209;28;20042;-60
2023/08/16 00:55:08;;;;;;;10.98;7.50;;;;;;;;;;5033463;28;20041;-60
2023/08/16 00:57:34;;;;;;;10.85;7.60;;;;;;;;;;5032979;28;20412;-60
2023/08/16 01:00:00;;;;;;;11.65;7.90;;;;;;;;;;5033841;28;20036;-60
2023/08/16 01:02:27;;;;;;;12.90;8.50;;;;;;;;;;5028594;28;20429;-60
2023/08/16 01:04:55;;;;;;;12.30;8.27;;;;;;;;;;5036102;28;20263;-60
2023/08/16 01:07:21;;;;;;;14.38;8.60;;;;;;;;;;5039769;28;20037;-60
2023/08/16 01:09:47;;;;;;;15.93;8.50;;;;;;;;;;5037954;28;20049;-60
2023/08/16 01:12:29;;;;;;;15.80;8.38;;;;;;;;;;5028730;28;20044;-60
2023/08/16 01:15:26;;;;;;;13.07;7.60;;;;;;;;;;5033698;28;20504;-60
2023/08/16 01:17:53;;;;;;;12.77;8.65;;;;;;;;;;5036959;28;20538;-60
2023/08/16 01:20:21;;;;;;;13.55;8.15;;;;;;;;;;5030937;28;20029;-58
2023/08/16 01:22:56;;;;;;;13.55;8.23;;;;;;;;;;5016392;28;20049;-59
2023/08/16 01:25:23;;;;;;;13.63;8.73;;;;;;;;;;5030009;28;20040;-59
2023/08/16 01:27:51;;;;;;;13.38;8.35;;;;;;;;;;5024235;28;20041;-59
2023/08/16 01:30:20;;;;;;;14.57;8.13;;;;;;;;;;5029281;28;20420;-58
2023/08/16 01:32:47;;;;;;;13.57;8.00;;;;;;;;;;5031412;28;20041;-59
2023/08/16 01:35:15;;;;;;;13.77;8.32;;;;;;;;;;5035965;28;20033;-59
2023/08/16 01:37:43;;;;;;;13.70;8.70;;;;;;;;;;5018911;28;20034;-59
2023/08/16 01:40:11;;;;;;;12.18;7.65;;;;;;;;;;5037629;28;20501;-59
2023/08/16 01:42:42;;;;;;;14.50;7.97;;;;;;;;;;5030746;28;20040;-59
2023/08/16 01:45:09;;;;;;;13.27;8.23;;;;;;;;;;5027631;28;20516;-60
2023/08/16 01:47:37;;;;;;;14.30;8.60;;;;;;;;;;5037513;28;20052;-59
2023/08/16 01:50:05;;;;;;;14.65;8.38;;;;;;;;;;5030702;28;20044;-59
2023/08/16 01:52:32;;;;;;;12.50;8.10;;;;;;;;;;5029739;28;20040;-59
2023/08/16 01:54:58;;;;;;;11.80;8.00;;;;;;;;;;5033961;28;20033;-59
2023/08/16 01:57:26;;;;;;;12.48;8.50;;;;;;;;;;5031449;28;20517;-59
2023/08/16 01:59:52;;;;;;;15.27;8.43;;;;;;;;;;5032736;28;20409;-59
2023/08/16 02:02:18;;;;;;;13.45;8.45;;;;;;;;;;5027072;28;20041;-59
2023/08/16 02:04:44;;;;;;;11.60;8.73;;;;;;;;;;5032795;28;20053;-59
2023/08/16 02:07:10;;;;;;;14.35;8.52;;;;;;;;;;5029678;28;20049;-59
2023/08/16 02:09:37;;;;;;;14.43;8.55;;;;;;;;;;5029723;28;20033;-60
2023/08/16 02:12:03;;;;;;;17.52;9.23;;;;;;;;;;5034697;28;20037;-59
2023/08/16 02:14:29;;;;;;;15.10;9.48;;;;;;;;;;5034065;28;20042;-59
2023/08/16 02:16:55;;;;;;;12.05;8.40;;;;;;;;;;5030020;28;20543;-59
2023/08/16 02:19:21;;;;;;;14.90;9.40;;;;;;;;;;5030964;28;20052;-59
2023/08/16 02:21:48;;;;;;;12.55;8.90;;;;;;;;;;5024009;28;20049;-59
2023/08/16 02:24:17;;;;;;;15.00;9.20;;;;;;;;;;5036990;28;20052;-59
2023/08/16 02:26:43;;;;;;;17.02;9.40;;;;;;;;;;5030947;28;20610;-59
2023/08/16 02:29:10;;;;;;;15.20;9.35;;;;;;;;;;5026935;28;20054;-60
2023/08/16 02:31:36;;;;;;;15.65;9.88;;;;;;;;;;5031988;28;20044;-59
2023/08/16 02:34:03;;;;;;;14.05;9.88;;;;;;;;;;5036082;28;20041;-58
2023/08/16 02:36:29;;;;;;;16.90;11.30;;;;;;;;;;5014703;28;20037;-60
2023/08/16 02:38:55;;;;;;;17.15;10.35;;;;;;;;;;5046677;28;20432;-60
2023/08/16 02:41:21;;;;;;;14.98;9.88;;;;;;;;;;5030896;28;20045;-60
2023/08/16 02:43:47;;;;;;;16.77;10.23;;;;;;;;;;5030416;28;20040;-60
2023/08/16 02:46:14;;;;;;;16.25;10.18;;;;;;;;;;5034518;28;20072;-60
2023/08/16 02:48:41;;;;;;;13.68;10.40;;;;;;;;;;5029296;28;20490;-60
2023/08/16 02:51:07;;;;;;;12.75;9.57;;;;;;;;;;5027848;28;20041;-60
2023/08/16 02:53:33;;;;;;;16.83;9.85;;;;;;;;;;5035289;28;20505;-59
2023/08/16 02:55:59;;;;;;;16.85;9.70;;;;;;;;;;5032877;28;20036;-59
2023/08/16 02:58:25;;;;;;;14.52;9.95;;;;;;;;;;5031288;28;20053;-60
2023/08/16 03:00:52;;;;;;;15.90;10.07;;;;;;;;;;5032402;28;20054;-60
2023/08/16 03:03:19;;;;;;;14.43;10.10;;;;;;;;;;5029790;28;20037;-59
2023/08/16 03:05:45;;;;;;;18.08;10.48;;;;;;;;;;5034268;28;20595;-59
2023/08/16 03:08:11;;;;;;;14.52;10.25;;;;;;;;;;5030982;28;20529;-60
2023/08/16 03:10:37;;;;;;;17.42;10.07;;;;;;;;;;5030465;28;20386;-60
2023/08/16 03:13:03;;;;;;;20.58;10.50;;;;;;;;;;5029258;28;20037;-60
2023/08/16 03:15:29;;;;;;;18.08;10.60;;;;;;;;;;5033404;28;20045;-60
2023/08/16 03:17:55;;;;;;;13.60;10.25;;;;;;;;;;5027566;28;20030;-60
2023/08/16 03:20:21;;;;;;;22.67;10.88;;;;;;;;;;5028729;28;20517;-60
2023/08/16 03:22:47;;;;;;;15.80;10.20;;;;;;;;;;5027935;28;20044;-60
2023/08/16 03:25:16;;;;;;;15.97;10.70;;;;;;;;;;5032983;28;20036;-60
2023/08/16 03:27:42;;;;;;;15.85;10.52;;;;;;;;;;5028541;28;20402;-59
2023/08/16 03:30:10;;;;;;;16.60;10.43;;;;;;;;;;5029907;28;20038;-59
2023/08/16 03:32:38;;;;;;;13.52;9.20;;;;;;;;;;5028611;28;20037;-59
2023/08/16 03:35:04;;;;;;;15.82;9.93;;;;;;;;;;5032256;28;20501;-59
2023/08/16 03:37:31;;;;;;;16.08;10.05;;;;;;;;;;5036745;28;20028;-61
2023/08/16 03:39:59;;;;;;;13.77;9.65;;;;;;;;;;5031640;28;20037;-59
2023/08/16 03:42:25;;;;;;;19.98;10.02;;;;;;;;;;5029182;28;20045;-60
2023/08/16 03:44:51;;;;;;;18.90;10.52;;;;;;;;;;5037948;28;20052;-60
2023/08/16 03:47:17;;;;;;;15.85;9.57;;;;;;;;;;5031151;28;20033;-60
2023/08/16 03:49:46;;;;;;;18.50;9.52;;;;;;;;;;5031012;28;20029;-60
2023/08/16 03:52:13;;;;;;;13.75;9.80;;;;;;;;;;5029261;28;20033;-60
2023/08/16 03:54:39;;;;;;;14.93;9.45;;;;;;;;;;5029915;28;20040;-60
2023/08/16 03:57:05;;;;;;;17.90;10.43;;;;;;;;;;5028411;28;20026;-61
2023/08/16 03:59:35;;;;;;;18.95;10.57;;;;;;;;;;5025549;28;20493;-59
2023/08/16 04:02:01;;;;;;;14.98;10.13;;;;;;;;;;5029690;28;20040;-59
2023/08/16 04:04:27;;;;;;;21.45;10.40;;;;;;;;;;5028824;28;20497;-60
2023/08/16 04:06:53;;;;;;;15.18;10.35;;;;;;;;;;5028450;28;20040;-60
2023/08/16 04:09:19;;;;;;;16.65;9.55;;;;;;;;;;5033030;28;20056;-60
2023/08/16 04:11:45;;;;;;;16.77;10.13;;;;;;;;;;5034034;28;20029;-59
2023/08/16 04:14:12;;;;;;;17.50;9.98;;;;;;;;;;5029208;28;20424;-60
2023/08/16 04:16:38;;;;;;;17.17;10.35;;;;;;;;;;5025756;28;20033;-60
2023/08/16 04:19:04;;;;;;;21.13;11.25;;;;;;;;;;5017172;28;20607;-60
2023/08/16 04:21:31;;;;;;;15.52;9.27;;;;;;;;;;5033865;28;20508;-60
2023/08/16 04:23:57;;;;;;;16.95;10.35;;;;;;;;;;5033793;28;20512;-60
2023/08/16 04:26:23;;;;;;;19.48;10.73;;;;;;;;;;5033937;28;20045;-60
2023/08/16 04:28:49;;;;;;;17.55;9.40;;;;;;;;;;5029243;28;20052;-60
2023/08/16 04:31:15;;;;;;;18.15;10.35;;;;;;;;;;5030423;28;20044;-60
2023/08/16 04:33:41;;;;;;;14.73;9.98;;;;;;;;;;5034355;28;20481;-60
2023/08/16 04:36:07;;;;;;;18.75;11.00;;;;;;;;;;5036464;28;20041;-60
2023/08/16 04:38:34;;;;;;;19.27;11.43;;;;;;;;;;5035171;28;20493;-59
2023/08/16 04:41:00;;;;;;;19.85;11.45;;;;;;;;;;5029132;28;20442;-60
2023/08/16 04:43:26;;;;;;;20.88;11.57;;;;;;;;;;5035756;28;20053;-60
2023/08/16 04:45:52;;;;;;;21.20;11.65;;;;;;;;;;5030504;28;20038;-59
2023/08/16 04:48:19;;;;;;;23.67;14.07;;;;;;;;;;5031077;28;20037;-60
2023/08/16 04:50:45;;;;;;;23.05;12.30;;;;;;;;;;5031281;28;20050;-60
2023/08/16 04:53:12;;;;;;;23.48;11.02;;;;;;;;;;5033073;28;20041;-60
2023/08/16 04:55:39;;;;;;;15.15;10.38;;;;;;;;;;5033839;28;20033;-60
2023/08/16 04:58:05;;;;;;;16.63;11.23;;;;;;;;;;5030175;28;20401;-61
2023/08/16 05:00:31;;;;;;;17.40;11.43;;;;;;;;;;5030423;28;20490;-60
2023/08/16 05:03:01;;;;;;;21.85;12.02;;;;;;;;;;5037240;28;20037;-60
2023/08/16 05:05:30;;;;;;;19.02;11.10;;;;;;;;;;5035022;28;20045;-60
2023/08/16 05:07:56;;;;;;;18.77;11.90;;;;;;;;;;5030637;28;20050;-60
2023/08/16 05:10:22;;;;;;;19.98;14.18;;;;;;;;;;5031497;28;20045;-60
2023/08/16 05:12:48;;;;;;;23.45;12.68;;;;;;;;;;5030997;28;20044;-60
2023/08/16 05:15:14;;;;;;;23.52;12.35;;;;;;;;;;5033775;28;20417;-60
2023/08/16 05:17:41;;;;;;;22.08;12.80;;;;;;;;;;5033816;28;20030;-60
2023/08/16 05:20:10;;;;;;;23.08;13.02;;;;;;;;;;5034267;28;20034;-59
2023/08/16 05:22:36;;;;;;;23.60;13.13;;;;;;;;;;5029373;28;20421;-59
2023/08/16 05:25:02;;;;;;;21.58;13.18;;;;;;;;;;5033516;28;20044;-60
2023/08/16 05:27:29;;;;;;;21.77;12.52;;;;;;;;;;5038325;28;20041;-60
2023/08/16 05:29:55;;;;;;;27.88;13.70;;;;;;;;;;5032014;28;20048;-60
2023/08/16 05:32:21;;;;;;;21.23;12.05;;;;;;;;;;5033338;28;20041;-59
2023/08/16 05:34:47;;;;;;;20.85;13.32;;;;;;;;;;5038916;28;20520;-61
2023/08/16 05:37:13;;;;;;;20.40;13.60;;;;;;;;;;5031964;28;20049;-61
2023/08/16 05:39:39;;;;;;;22.95;12.88;;;;;;;;;;5031253;28;20045;-61
2023/08/16 05:42:06;;;;;;;24.52;12.85;;;;;;;;;;5031789;28;20043;-61
2023/08/16 05:44:32;;;;;;;23.92;14.48;;;;;;;;;;5032879;28;20408;-61
2023/08/16 05:46:58;;;;;;;27.95;15.77;;;;;;;;;;5029761;28;20041;-60
2023/08/16 05:49:24;;;;;;;30.73;16.85;;;;;;;;;;5031193;28;20037;-61
2023/08/16 05:51:50;;;;;;;28.85;18.13;;;;;;;;;;5029720;28;20029;-61
2023/08/16 05:54:16;;;;;;;31.98;18.98;;;;;;;;;;5031271;28;20033;-61
2023/08/16 05:56:43;;;;;;;34.65;17.95;;;;;;;;;;5028864;28;20038;-61
2023/08/16 05:59:09;;;;;;;38.30;19.40;;;;;;;;;;5031254;28;20053;-60
2023/08/16 06:01:35;;;;;;;33.97;19.67;;;;;;;;;;5029440;28;20033;-60
2023/08/16 06:04:02;;;;;;;34.30;19.30;;;;;;;;;;5028962;28;20029;-60
2023/08/16 06:06:28;;;;;;;38.22;20.55;;;;;;;;;;5032363;28;20053;-60
2023/08/16 06:08:54;;;;;;;32.05;17.73;;;;;;;;;;5033119;28;20504;-61
2023/08/16 06:11:20;;;;;;;35.22;18.75;;;;;;;;;;5032068;28;20532;-61
2023/08/16 06:13:46;;;;;;;28.80;17.55;;;;;;;;;;5030074;28;20056;-60
2023/08/16 06:16:16;;;;;;;30.25;18.13;;;;;;;;;;5030375;28;20060;-60
2023/08/16 06:18:42;;;;;;;31.45;17.65;;;;;;;;;;5024165;28;20440;-60
2023/08/16 06:21:08;;;;;;;30.58;17.13;;;;;;;;;;5034367;28;20053;-61
2023/08/16 06:23:35;;;;;;;30.40;17.05;;;;;;;;;;5026186;28;20041;-60
2023/08/16 06:26:01;;;;;;;26.50;15.95;;;;;;;;;;5036317;28;20046;-61
2023/08/16 06:28:27;;;;;;;29.58;14.38;;;;;;;;;;5030657;28;20053;-61
2023/08/16 06:30:54;;;;;;;25.80;15.45;;;;;;;;;;5030710;28;20037;-61
2023/08/16 06:33:21;;;;;;;32.25;16.00;;;;;;;;;;5030390;28;20409;-60
2023/08/16 06:35:51;;;;;;;25.35;13.35;;;;;;;;;;5037918;28;20038;-61
2023/08/16 06:38:18;;;;;;;22.42;13.73;;;;;;;;;;5026280;28;20382;-61
2023/08/16 06:40:44;;;;;;;19.00;13.30;;;;;;;;;;5030408;28;20048;-60
2023/08/16 06:43:10;;;;;;;21.27;13.15;;;;;;;;;;5028535;28;20057;-61
2023/08/16 06:45:36;;;;;;;23.98;13.35;;;;;;;;;;5030233;28;20515;-59
2023/08/16 06:48:03;;;;;;;21.38;12.85;;;;;;;;;;5029803;28;20053;-60
2023/08/16 06:50:29;;;;;;;21.33;12.57;;;;;;;;;;5028595;28;20049;-59
2023/08/16 06:52:56;;;;;;;19.40;12.68;;;;;;;;;;5031670;28;20049;-61
2023/08/16 06:55:22;;;;;;;22.17;13.57;;;;;;;;;;5031746;28;20045;-60
2023/08/16 06:57:48;;;;;;;21.63;13.18;;;;;;;;;;5026887;28;20033;-61
2023/08/16 07:00:17;;;;;;;19.92;13.45;;;;;;;;;;5027590;28;20517;-61
2023/08/16 07:02:43;;;;;;;22.55;14.40;;;;;;;;;;5024824;28;20536;-61
2023/08/16 07:05:11;;;;;;;26.05;13.48;;;;;;;;;;5028039;28;20049;-61
2023/08/16 07:07:38;;;;;;;23.63;14.27;;;;;;;;;;5032276;28;20060;-60
2023/08/16 07:10:06;;;;;;;22.00;13.70;;;;;;;;;;5024282;28;20040;-61
2023/08/16 07:12:32;;;;;;;23.52;13.77;;;;;;;;;;5027044;28;20520;-60
2023/08/16 07:14:58;;;;;;;23.90;13.57;;;;;;;;;;5026916;28;20535;-60
2023/08/16 07:17:24;;;;;;;19.27;13.00;;;;;;;;;;5031384;28;20037;-61
2023/08/16 07:19:52;;;;;;;22.90;13.88;;;;;;;;;;5031370;28;20033;-61
2023/08/16 07:22:20;;;;;;;28.02;14.68;;;;;;;;;;5028104;28;20505;-60
2023/08/16 07:24:46;;;;;;;18.88;13.00;;;;;;;;;;5031244;28;20045;-61
2023/08/16 07:27:12;;;;;;;23.67;13.38;;;;;;;;;;5035464;28;20072;-60
2023/08/16 07:29:38;;;;;;;19.95;13.13;;;;;;;;;;5030096;28;20041;-60
2023/08/16 07:32:05;;;;;;;18.83;13.57;;;;;;;;;;5036809;28;20033;-60
2023/08/16 07:34:31;;;;;;;21.70;13.43;;;;;;;;;;5036845;28;20041;-60
2023/08/16 07:36:57;;;;;;;18.85;12.38;;;;;;;;;;5029442;28;20060;-61
2023/08/16 07:39:24;;;;;;;20.70;12.25;;;;;;;;;;5029901;28;20056;-60
2023/08/16 07:41:50;;;;;;;17.42;12.07;;;;;;;;;;5030515;28;20044;-61
2023/08/16 07:44:16;;;;;;;19.25;12.80;;;;;;;;;;5030261;28;20029;-60
2023/08/16 07:46:42;;;;;;;20.50;13.77;;;;;;;;;;5031019;28;20432;-60
2023/08/16 07:49:09;;;;;;;18.58;13.13;;;;;;;;;;5028378;28;20057;-60
2023/08/16 07:51:35;;;;;;;18.67;12.65;;;;;;;;;;5031013;28;20041;-61
2023/08/16 07:54:01;;;;;;;19.95;11.88;;;;;;;;;;5029640;28;20038;-61
2023/08/16 07:56:27;;;;;;;20.40;12.30;;;;;;;;;;5027631;28;20038;-60
2023/08/16 07:58:53;;;;;;;23.92;13.10;;;;;;;;;;5029156;28;20040;-61
2023/08/16 08:01:19;;;;;;;15.40;12.23;;;;;;;;;;5029104;28;20610;-61
2023/08/16 08:03:46;;;;;;;21.20;12.52;;;;;;;;;;5033509;28;20053;-60
2023/08/16 08:06:13;;;;;;;19.08;11.80;;;;;;;;;;5031506;28;20038;-61
2023/08/16 08:08:39;;;;;;;22.40;12.38;;;;;;;;;;5031307;28;20420;-61
2023/08/16 08:11:09;;;;;;;21.48;12.23;;;;;;;;;;5028876;28;20037;-61
2023/08/16 08:13:37;;;;;;;17.95;12.73;;;;;;;;;;5021801;28;20516;-60
2023/08/16 08:16:03;;;;;;;19.50;12.45;;;;;;;;;;5043937;28;20398;-61
2023/08/16 08:18:29;;;;;;;20.45;12.82;;;;;;;;;;5038737;28;20601;-61
2023/08/16 08:20:55;;;;;;;20.02;12.50;;;;;;;;;;5029677;28;20421;-61
2023/08/16 08:23:22;;;;;;;22.90;12.45;;;;;;;;;;5040478;28;20049;-61
2023/08/16 08:25:48;;;;;;;19.20;12.55;;;;;;;;;;5040434;28;20040;-61
2023/08/16 08:28:14;;;;;;;16.80;12.05;;;;;;;;;;5039655;28;20057;-61
2023/08/16 08:30:40;;;;;;;18.83;11.90;;;;;;;;;;5039375;28;20049;-61
2023/08/16 08:33:07;;;;;;;16.40;12.23;;;;;;;;;;5033479;28;20036;-61
2023/08/16 08:35:33;;;;;;;17.77;12.55;;;;;;;;;;5036902;28;20046;-61
2023/08/16 08:38:00;;;;;;;24.73;12.68;;;;;;;;;;5041834;28;20033;-61
2023/08/16 08:40:30;;;;;;;19.30;12.23;;;;;;;;;;5032292;28;20053;-61
2023/08/16 08:42:58;;;;;;;19.80;11.45;;;;;;;;;;5030743;28;20424;-60
2023/08/16 08:45:26;;;;;;;18.15;11.88;;;;;;;;;;5034687;28;20087;-61
2023/08/16 08:47:55;;;;;;;18.95;11.77;;;;;;;;;;5032739;28;20040;-61
2023/08/16 08:50:21;;;;;;;16.20;12.20;;;;;;;;;;5033968;28;20037;-61
2023/08/16 08:52:51;;;;;;;19.05;12.43;;;;;;;;;;5034665;28;20037;-61
2023/08/16 08:55:18;;;;;;;18.67;11.15;;;;;;;;;;5031534;28;20049;-61
2023/08/16 08:57:50;;;;;;;17.85;12.13;;;;;;;;;;5032908;28;20045;-62
2023/08/16 09:00:20;;;;;;;18.25;12.20;;;;;;;;;;5037316;28;20644;-61
2023/08/16 09:02:50;;;;;;;15.95;11.45;;;;;;;;;;5035038;28;20029;-59
2023/08/16 09:05:21;;;;;;;15.70;12.32;;;;;;;;;;5032295;28;20057;-61
2023/08/16 09:07:48;;;;;;;25.52;12.40;;;;;;;;;;5032525;28;20037;-61
2023/08/16 09:10:15;;;;;;;21.05;12.40;;;;;;;;;;5034124;28;20068;-61
2023/08/16 09:12:42;;;;;;;17.08;11.60;;;;;;;;;;5030683;28;20061;-61
2023/08/16 09:15:09;;;;;;;16.70;11.45;;;;;;;;;;5027653;28;20037;-61
2023/08/16 09:17:35;;;;;;;15.60;11.13;;;;;;;;;;5039547;28;20041;-60
2023/08/16 09:20:05;;;;;;;17.40;11.55;;;;;;;;;;5031455;28;20029;-62
2023/08/16 09:22:32;;;;;;;15.02;10.88;;;;;;;;;;5034202;28;20497;-61
2023/08/16 09:24:58;;;;;;;18.13;11.77;;;;;;;;;;5033321;28;20063;-61
2023/08/16 09:27:25;;;;;;;16.88;11.63;;;;;;;;;;5037161;28;20056;-61
2023/08/16 09:29:55;;;;;;;18.92;11.23;;;;;;;;;;5031617;28;20034;-62
2023/08/16 09:32:22;;;;;;;16.65;10.98;;;;;;;;;;5032620;28;20072;-62
2023/08/16 09:34:49;;;;;;;23.77;11.02;;;;;;;;;;5038352;28;20037;-61
2023/08/16 09:37:18;;;;;;;15.52;11.38;;;;;;;;;;5032548;28;20025;-62
2023/08/16 09:39:54;;;;;;;17.05;11.25;;;;;;;;;;5026307;28;20040;-61
2023/08/16 09:42:20;;;;;;;14.75;10.95;;;;;;;;;;5033475;28;20076;-62
2023/08/16 09:44:47;;;;;;;15.68;11.00;;;;;;;;;;5030893;28;20049;-62
2023/08/16 09:47:14;;;;;;;16.98;11.18;;;;;;;;;;5031563;28;20030;-62
2023/08/16 09:49:41;;;;;;;15.52;11.35;;;;;;;;;;5034359;28;20496;-61
2023/08/16 09:52:11;;;;;;;19.30;11.18;;;;;;;;;;5032938;28;20500;-60
2023/08/16 09:54:38;;;;;;;15.80;11.80;;;;;;;;;;5032799;28;20041;-62
2023/08/16 09:57:04;;;;;;;15.02;11.30;;;;;;;;;;5034621;28;20046;-62
2023/08/16 09:59:31;;;;;;;14.68;10.88;;;;;;;;;;5031627;28;20037;-62
2023/08/16 10:01:58;;;;;;;24.10;11.00;;;;;;;;;;5035645;28;20034;-62
2023/08/16 10:04:27;;;;;;;14.05;10.30;;;;;;;;;;5035837;28;20029;-61
2023/08/16 10:06:53;;;;;;;18.42;11.57;;;;;;;;;;5035223;28;20044;-62
2023/08/16 10:09:19;;;;;;;13.85;10.15;;;;;;;;;;5028031;28;20034;-62
2023/08/16 10:11:48;;;;;;;16.42;10.05;;;;;;;;;;5023716;28;20038;-62
2023/08/16 10:14:15;;;;;;;14.20;9.80;;;;;;;;;;5031380;28;20040;-62
2023/08/16 10:16:46;;;;;;;12.32;9.65;;;;;;;;;;5026295;28;20034;-61
2023/08/16 10:19:16;;;;;;;13.55;9.35;;;;;;;;;;5026599;28;20429;-60
2023/08/16 10:21:46;;;;;;;15.35;9.00;;;;;;;;;;5029670;28;20041;-62
2023/08/16 10:24:15;;;;;;;13.05;9.57;;;;;;;;;;5035215;28;20056;-62
2023/08/16 10:26:46;;;;;;;14.35;9.82;;;;;;;;;;5040147;28;20033;-62
2023/08/16 10:29:16;;;;;;;12.20;9.10;;;;;;;;;;5036696;28;20053;-62
2023/08/16 10:31:46;;;;;;;11.07;8.80;;;;;;;;;;5038030;28;20052;-62
2023/08/16 10:34:15;;;;;;;9.85;8.45;;;;;;;;;;5038526;28;20041;-62
2023/08/16 10:36:41;;;;;;;12.90;9.75;;;;;;;;;;5031928;28;20033;-61
2023/08/16 10:39:08;;;;;;;15.75;8.48;;;;;;;;;;5032277;28;20026;-61
2023/08/16 10:41:40;;;;;;;15.13;9.20;;;;;;;;;;5025991;28;20227;-62
2023/08/16 10:44:07;;;;;;;15.85;8.77;;;;;;;;;;5027809;28;20037;-62
2023/08/16 10:46:35;;;;;;;14.32;8.25;;;;;;;;;;5028985;28;20050;-62
2023/08/16 10:49:06;;;;;;;11.40;7.97;;;;;;;;;;5028789;28;20417;-63
2023/08/16 10:51:50;;;;;;;10.77;8.45;;;;;;;;;;5031919;28;20052;-62
2023/08/16 10:54:17;;;;;;;13.00;8.02;;;;;;;;;;5020967;28;20112;-62
2023/08/16 10:56:47;;;;;;;11.65;7.40;;;;;;;;;;5028183;28;20029;-63
2023/08/16 10:59:14;;;;;;;12.27;7.65;;;;;;;;;;5026024;28;20037;-63
2023/08/16 11:01:45;;;;;;;9.30;7.03;;;;;;;;;;5037997;28;20039;-62
2023/08/16 11:04:11;;;;;;;9.35;7.10;;;;;;;;;;5026483;28;20054;-61
2023/08/16 11:06:39;;;;;;;14.30;7.65;;;;;;;;;;5028380;28;20040;-62
2023/08/16 11:09:09;;;;;;;9.73;7.13;;;;;;;;;;5029045;28;20053;-63
2023/08/16 11:11:42;;;;;;;9.85;6.95;;;;;;;;;;5033060;28;20064;-62
2023/08/16 11:14:08;;;;;;;10.32;6.72;;;;;;;;;;5025031;28;20046;-62
2023/08/16 11:16:34;;;;;;;8.93;7.05;;;;;;;;;;5045173;28;20034;-62
2023/08/16 11:19:04;;;;;;;6.75;4.70;;;;;;;;;;5032786;28;20038;-62
2023/08/16 11:21:34;;;;;;;5.55;4.40;;;;;;;;;;5035595;28;20037;-62
2023/08/16 11:24:02;;;;;;;5.53;4.50;;;;;;;;;;5031855;28;20045;-62
2023/08/16 11:26:37;;;;;;;6.10;4.75;;;;;;;;;;5031062;28;20042;-62
2023/08/16 11:29:03;;;;;;;8.80;4.78;;;;;;;;;;5033982;28;20033;-62
2023/08/16 11:31:29;;;;;;;6.50;4.50;;;;;;;;;;5034936;28;20030;-62
2023/08/16 11:33:55;;;;;;;7.53;4.82;;;;;;;;;;5028182;28;20113;-63
2023/08/16 11:36:21;;;;;;;6.50;4.68;;;;;;;;;;5029436;28;20049;-62
2023/08/16 11:38:48;;;;;;;7.57;4.85;;;;;;;;;;5031254;28;20037;-62
2023/08/16 11:41:18;;;;;;;7.28;4.32;;;;;;;;;;5030968;28;20041;-63
2023/08/16 11:43:44;;;;;;;9.35;4.30;;;;;;;;;;5031078;28;20040;-62
2023/08/16 11:46:10;;;;;;;7.53;4.35;;;;;;;;;;5029031;28;20109;-62
2023/08/16 11:48:36;;;;;;;6.45;4.10;;;;;;;;;;5027290;28;20040;-63
2023/08/16 11:51:03;;;;;;;7.25;4.25;;;;;;;;;;5026674;28;20029;-62
2023/08/16 11:53:33;;;;;;;5.85;4.03;;;;;;;;;;5027956;28;20437;-62
2023/08/16 11:56:01;;;;;;;5.60;4.10;;;;;;;;;;5030161;28;20397;-62
2023/08/16 11:58:28;;;;;;;9.02;4.15;;;;;;;;;;5028457;28;20402;-62
2023/08/16 12:01:05;;;;;;;5.60;4.13;;;;;;;;;;5033748;28;20044;-62
2023/08/16 12:03:33;;;;;;;7.73;4.57;;;;;;;;;;5023545;28;20054;-62
2023/08/16 12:06:06;;;;;;;4.68;3.92;;;;;;;;;;5032820;28;20517;-63
2023/08/16 12:08:32;;;;;;;5.10;3.80;;;;;;;;;;5028624;28;20076;-62
2023/08/16 12:10:58;;;;;;;6.93;4.30;;;;;;;;;;5031731;28;20037;-62
2023/08/16 12:13:24;;;;;;;6.80;4.57;;;;;;;;;;5027555;28;20497;-63
2023/08/16 12:15:51;;;;;;;6.03;4.32;;;;;;;;;;5022483;28;20038;-62
2023/08/16 12:18:17;;;;;;;5.82;3.83;;;;;;;;;;5030539;28;20052;-63
2023/08/16 12:20:49;;;;;;;6.85;3.97;;;;;;;;;;5036874;28;20041;-62
2023/08/16 12:23:19;;;;;;;7.03;4.22;;;;;;;;;;5030240;28;20033;-63
2023/08/16 12:25:46;;;;;;;5.80;3.80;;;;;;;;;;5030585;28;20037;-62
2023/08/16 12:28:12;;;;;;;7.80;4.45;;;;;;;;;;5035737;28;20049;-62
2023/08/16 12:30:38;;;;;;;4.97;3.72;;;;;;;;;;5031022;28;20124;-62
2023/08/16 12:33:05;;;;;;;6.03;3.95;;;;;;;;;;5029673;28;20497;-62
2023/08/16 12:35:32;;;;;;;6.95;4.50;;;;;;;;;;5028541;28;20828;-63
2023/08/16 12:37:59;;;;;;;5.85;4.03;;;;;;;;;;5030094;28;20041;-63
2023/08/16 12:40:28;;;;;;;5.47;3.90;;;;;;;;;;5031233;28;20026;-63
2023/08/16 12:42:55;;;;;;;4.65;3.97;;;;;;;;;;5027439;28;20041;-63
2023/08/16 12:45:21;;;;;;;6.05;4.07;;;;;;;;;;5027767;28;20037;-62
2023/08/16 12:47:47;;;;;;;6.22;4.28;;;;;;;;;;5031577;28;20497;-62
2023/08/16 12:50:13;;;;;;;5.15;3.70;;;;;;;;;;5028151;28;20033;-63
2023/08/16 12:52:39;;;;;;;6.47;3.63;;;;;;;;;;5029607;28;20034;-63
2023/08/16 12:55:06;;;;;;;5.20;4.30;;;;;;;;;;5032489;28;20049;-63
2023/08/16 12:57:32;;;;;;;5.22;4.20;;;;;;;;;;5030541;28;20045;-63
2023/08/16 12:59:58;;;;;;;7.50;3.83;;;;;;;;;;5033423;28;20396;-62
2023/08/16 13:02:24;;;;;;;4.97;3.65;;;;;;;;;;5031573;28;20049;-62
2023/08/16 13:04:51;;;;;;;7.50;4.00;;;;;;;;;;5029894;28;20523;-62
2023/08/16 13:07:17;;;;;;;6.43;3.63;;;;;;;;;;5028210;28;20037;-62
2023/08/16 13:09:43;;;;;;;6.30;3.60;;;;;;;;;;5034849;28;20037;-62
2023/08/16 13:12:10;;;;;;;4.30;3.50;;;;;;;;;;5026387;28;20041;-61
2023/08/16 13:14:36;;;;;;;6.50;3.47;;;;;;;;;;5032132;28;20049;-60
2023/08/16 13:17:03;;;;;;;5.65;3.38;;;;;;;;;;5028501;28;20041;-62
2023/08/16 13:19:30;;;;;;;4.80;3.37;;;;;;;;;;5035571;28;20480;-61
2023/08/16 13:21:57;;;;;;;4.05;3.20;;;;;;;;;;5032925;28;20489;-62
2023/08/16 13:24:23;;;;;;;7.97;3.30;;;;;;;;;;5026063;28;20038;-61
2023/08/16 13:26:49;;;;;;;4.63;3.08;;;;;;;;;;5034239;28;20037;-61
2023/08/16 13:29:16;;;;;;;4.22;3.25;;;;;;;;;;5044181;28;20036;-61
2023/08/16 13:31:42;;;;;;;5.90;3.30;;;;;;;;;;5043709;28;20420;-62
2023/08/16 13:34:08;;;;;;;5.25;3.42;;;;;;;;;;5032519;28;20040;-61
2023/08/16 13:36:34;;;;;;;4.07;3.40;;;;;;;;;;5032460;28;20057;-60
2023/08/16 13:39:02;;;;;;;4.25;3.03;;;;;;;;;;5033796;28;20036;-61
2023/08/16 13:41:29;;;;;;;6.50;3.45;;;;;;;;;;5028443;28;20505;-61
2023/08/16 13:43:57;;;;;;;4.30;3.10;;;;;;;;;;5032837;28;20060;-61
2023/08/16 13:46:23;;;;;;;5.15;3.20;;;;;;;;;;5035605;28;20047;-62
2023/08/16 13:48:49;;;;;;;5.90;3.50;;;;;;;;;;5036413;28;20497;-61
2023/08/16 13:51:15;;;;;;;4.45;3.13;;;;;;;;;;5027317;28;20416;-61
2023/08/16 13:53:42;;;;;;;5.97;3.20;;;;;;;;;;5027172;28;20386;-61
2023/08/16 13:56:08;;;;;;;8.23;3.35;;;;;;;;;;5031628;28;20076;-62
2023/08/16 13:58:34;;;;;;;4.78;3.38;;;;;;;;;;5038854;28;20036;-62
2023/08/16 14:01:01;;;;;;;4.40;2.97;;;;;;;;;;5027628;28;20045;-62
2023/08/16 14:03:27;;;;;;;3.88;2.95;;;;;;;;;;5025535;28;20041;-61
2023/08/16 14:05:57;;;;;;;4.72;3.25;;;;;;;;;;5025276;28;20030;-63
2023/08/16 14:08:24;;;;;;;5.53;3.15;;;;;;;;;;5034112;28;20408;-61
2023/08/16 14:10:52;;;;;;;5.32;3.03;;;;;;;;;;5033827;28;20045;-61
2023/08/16 14:13:19;;;;;;;3.75;3.33;;;;;;;;;;5032896;28;20494;-62
2023/08/16 14:15:52;;;;;;;5.73;3.13;;;;;;;;;;5034786;28;20041;-61
2023/08/16 14:18:19;;;;;;;6.25;3.10;;;;;;;;;;5032466;28;20077;-62
2023/08/16 14:20:45;;;;;;;3.15;2.85;;;;;;;;;;5033722;28;20041;-62
2023/08/16 14:23:14;;;;;;;3.80;2.90;;;;;;;;;;5037977;28;20050;-61
2023/08/16 14:25:46;;;;;;;6.22;3.05;;;;;;;;;;5031335;28;20041;-61